Time;durP1;ratioP1;P1;durP2;ratioP2;P2;SDS_P1;SDS_P2;PMS_P1;PMS_P2;Temp;Humidity;BMP_temperature;BMP_pressure;BME280_temperature;BME280_humidity;BME280_pressure;Samples;Min_cycle;Max_cycle;Signal;HPM_P1;HPM_P2
2022/11/25 00:01:30;;;;;;;17.58;5.00;;;;;;;8.68;100.00;100831.69;5013241;28;20056;-49
2022/11/25 00:03:58;;;;;;;16.35;4.78;;;;;;;8.70;100.00;100834.97;4988771;28;20057;-49
2022/11/25 00:06:34;;;;;;;16.38;4.97;;;;;;;8.72;100.00;100832.81;4981858;28;20042;-47
2022/11/25 00:09:08;;;;;;;12.73;4.20;;;;;;;8.73;100.00;100829.84;5001314;28;20157;-48
2022/11/25 00:11:38;;;;;;;17.98;4.68;;;;;;;8.75;100.00;100826.84;5013231;28;20065;-49
2022/11/25 00:14:06;;;;;;;14.57;4.50;;;;;;;8.73;100.00;100823.56;4989503;28;20042;-50
2022/11/25 00:16:34;;;;;;;15.60;5.15;;;;;;;8.73;100.00;100824.41;4994822;28;20054;-51
2022/11/25 00:19:01;;;;;;;15.00;4.30;;;;;;;8.73;100.00;100819.00;5002379;28;20038;-50
2022/11/25 00:21:32;;;;;;;15.65;4.80;;;;;;;8.73;100.00;100820.84;4996076;28;20057;-52
2022/11/25 00:24:02;;;;;;;15.32;4.47;;;;;;;8.72;100.00;100813.78;5003545;28;20043;-52
2022/11/25 00:26:31;;;;;;;16.40;4.38;;;;;;;8.72;100.00;100822.75;4986482;28;20065;-52
2022/11/25 00:29:01;;;;;;;15.13;4.50;;;;;;;8.74;100.00;100814.38;4973940;28;20055;-52
2022/11/25 00:31:32;;;;;;;15.27;4.13;;;;;;;8.76;100.00;100817.66;4974056;28;20046;-52
2022/11/25 00:34:00;;;;;;;14.40;4.30;;;;;;;8.77;100.00;100818.47;4980986;28;20241;-50
2022/11/25 00:36:30;;;;;;;17.27;4.88;;;;;;;8.76;100.00;100809.50;4980897;28;20508;-51
2022/11/25 00:39:00;;;;;;;16.45;4.85;;;;;;;8.77;100.00;100802.97;4973903;28;20405;-53
2022/11/25 00:44:35;;;;;;;17.30;4.90;;;;;;;8.80;100.00;100802.47;4978490;28;20097;-50
2022/11/25 00:47:06;;;;;;;15.52;4.75;;;;;;;8.81;100.00;100804.13;4959376;28;20402;-51
2022/11/25 00:49:34;;;;;;;19.08;4.50;;;;;;;8.84;100.00;100805.50;4973659;28;20046;-52
2022/11/25 00:52:02;;;;;;;18.30;4.65;;;;;;;8.83;100.00;100801.16;4968320;28;20038;-52
2022/11/25 00:54:30;;;;;;;12.32;4.05;;;;;;;8.81;100.00;100801.41;4992797;28;20050;-53
2022/11/25 00:56:58;;;;;;;15.18;4.45;;;;;;;8.81;100.00;100806.03;4956639;28;20035;-54
2022/11/25 00:59:26;;;;;;;16.73;4.30;;;;;;;8.81;100.00;100800.59;4968246;28;20038;-52
2022/11/25 01:01:54;;;;;;;13.52;3.97;;;;;;;8.81;100.00;100806.84;4959810;28;20049;-52
2022/11/25 01:04:22;;;;;;;10.77;3.63;;;;;;;8.83;100.00;100806.59;4976004;28;20089;-52
2022/11/25 01:06:49;;;;;;;15.73;4.60;;;;;;;8.83;100.00;100801.16;4979353;28;20043;-50
2022/11/25 01:09:17;;;;;;;19.48;4.75;;;;;;;8.85;100.00;100807.13;4949500;28;20050;-53
2022/11/25 01:11:45;;;;;;;18.05;4.50;;;;;;;8.84;100.00;100798.16;4973990;28;20046;-50
2022/11/25 01:14:12;;;;;;;12.88;4.28;;;;;;;8.85;100.00;100802.53;4968437;28;20058;-50
2022/11/25 01:16:40;;;;;;;16.60;4.40;;;;;;;8.86;100.00;100804.16;4975584;28;20161;-50
2022/11/25 01:19:08;;;;;;;15.70;4.70;;;;;;;8.88;100.00;100793.88;4973850;28;20034;-53
2022/11/25 01:21:38;;;;;;;17.63;4.57;;;;;;;8.88;100.00;100796.56;4969469;28;20038;-49
2022/11/25 01:24:06;;;;;;;13.23;4.03;;;;;;;8.90;100.00;100799.88;4986785;28;20047;-48
2022/11/25 01:26:35;;;;;;;17.60;4.50;;;;;;;8.91;100.00;100798.78;4967632;28;20049;-51
2022/11/25 01:29:05;;;;;;;17.10;4.55;;;;;;;8.92;100.00;100805.03;4979602;28;20080;-51
2022/11/25 01:31:35;;;;;;;13.05;4.20;;;;;;;8.93;100.00;100806.69;5013969;28;20456;-50
2022/11/25 01:34:11;;;;;;;12.48;3.85;;;;;;;8.94;100.00;100813.75;4985617;28;20057;-51
2022/11/25 01:36:39;;;;;;;14.30;4.18;;;;;;;8.95;100.00;100810.78;4993304;28;20116;-51
2022/11/25 01:39:07;;;;;;;14.93;4.40;;;;;;;8.95;100.00;100813.50;4989076;28;20543;-52
2022/11/25 01:41:35;;;;;;;14.73;5.05;;;;;;;8.94;100.00;100814.56;4982697;28;20532;-50
2022/11/25 01:44:05;;;;;;;16.77;4.50;;;;;;;8.94;100.00;100811.84;5012366;28;20042;-51
2022/11/25 01:46:42;;;;;;;19.58;4.72;;;;;;;8.94;100.00;100819.19;5015885;28;20050;-51
2022/11/25 01:49:24;;;;;;;17.48;4.22;;;;;;;8.94;100.00;100828.13;4998754;28;20076;-52
2022/11/25 01:52:06;;;;;;;15.45;4.38;;;;;;;8.96;100.00;100826.00;5016006;28;20045;-52
2022/11/25 01:54:48;;;;;;;17.30;4.43;;;;;;;8.97;100.00;100818.66;5011994;28;20520;-50
2022/11/25 01:57:22;;;;;;;12.38;3.95;;;;;;;8.97;100.00;100829.53;5002035;28;20408;-53
2022/11/25 01:59:52;;;;;;;13.65;4.03;;;;;;;8.96;100.00;100826.00;4996512;28;20416;-49
2022/11/25 02:02:20;;;;;;;16.02;4.15;;;;;;;8.97;100.00;100824.09;4996666;28;20048;-52
2022/11/25 02:04:49;;;;;;;13.95;4.15;;;;;;;8.97;100.00;100824.09;5014811;28;20062;-51
2022/11/25 02:07:32;;;;;;;16.52;3.80;;;;;;;8.99;100.00;100829.28;5014865;28;20042;-50
2022/11/25 02:10:02;;;;;;;13.07;3.95;;;;;;;9.00;100.00;100831.75;5013595;28;20052;-50
2022/11/25 02:12:30;;;;;;;11.68;3.85;;;;;;;9.01;100.00;100836.09;4976407;28;20121;-54
2022/11/25 02:14:59;;;;;;;13.07;3.15;;;;;;;9.06;100.00;100844.28;4952294;28;20042;-51
2022/11/25 02:17:27;;;;;;;12.70;3.90;;;;;;;9.12;100.00;100835.13;5015189;28;20030;-50
2022/11/25 02:20:18;;;;;;;14.55;3.67;;;;;;;9.23;100.00;100844.16;5015181;28;20464;-51
2022/11/25 02:22:58;;;;;;;15.88;4.07;;;;;;;9.23;100.00;100841.44;4981382;28;20084;-51
2022/11/25 02:25:29;;;;;;;9.57;3.45;;;;;;;9.28;100.00;100840.69;4990943;28;20040;-53
2022/11/25 02:28:05;;;;;;;13.43;3.70;;;;;;;9.39;100.00;100850.56;4982483;28;20141;-54
2022/11/25 02:30:33;;;;;;;10.75;3.55;;;;;;;9.35;100.00;100849.44;4991757;28;20061;-52
2022/11/25 02:33:01;;;;;;;14.80;4.05;;;;;;;9.37;100.00;100855.44;4987658;28;20072;-53
2022/11/25 02:35:33;;;;;;;11.57;3.45;;;;;;;9.42;100.00;100860.91;5015677;28;20048;-53
2022/11/25 02:38:09;;;;;;;10.20;3.10;;;;;;;9.42;100.00;100863.66;5008736;28;20054;-51
2022/11/25 02:40:49;;;;;;;7.70;2.53;;;;;;;9.41;100.00;100866.66;4982754;28;20061;-50
2022/11/25 02:43:17;;;;;;;9.77;3.38;;;;;;;9.38;100.00;100859.81;5014318;28;20044;-50
2022/11/25 02:46:06;;;;;;;12.60;3.22;;;;;;;9.45;100.00;100862.31;4970206;28;20042;-47
2022/11/25 02:48:36;;;;;;;9.63;2.97;;;;;;;9.48;100.00;100867.25;4977728;28;20400;-52
2022/11/25 02:51:27;;;;;;;12.27;3.58;;;;;;;9.46;100.00;100870.22;4996915;28;20048;-50
2022/11/25 02:53:55;;;;;;;14.30;3.45;;;;;;;9.44;100.00;100872.38;4998077;28;20041;-52
2022/11/25 02:56:29;;;;;;;12.32;3.78;;;;;;;9.38;100.00;100871.50;4967793;28;20058;-51
2022/11/25 02:58:57;;;;;;;15.00;3.70;;;;;;;9.35;100.00;100872.00;4988101;28;20485;-51
2022/11/25 03:01:28;;;;;;;9.93;3.08;;;;;;;9.35;100.00;100879.34;4993126;28;20556;-50
2022/11/25 03:03:57;;;;;;;9.55;3.05;;;;;;;9.37;100.00;100877.19;4997052;28;20045;-51
2022/11/25 03:06:27;;;;;;;10.82;3.15;;;;;;;9.35;100.00;100884.78;5009445;28;20045;-51
2022/11/25 03:08:56;;;;;;;8.70;3.00;;;;;;;9.33;100.00;100890.50;4997090;28;20046;-52
2022/11/25 03:12:17;;;;;;;10.93;3.03;;;;;;;9.32;100.00;100880.69;4996951;28;20400;-53
2022/11/25 03:14:13;;;;;;;9.63;3.10;;;;;;;9.32;100.00;100867.09;4985846;28;20214;-49
2022/11/25 03:16:42;;;;;;;9.13;3.13;;;;;;;9.32;100.00;100858.13;4978740;28;20093;-50
2022/11/25 03:19:10;;;;;;;11.15;3.25;;;;;;;9.31;100.00;100837.47;4978569;28;20049;-49
2022/11/25 03:21:37;;;;;;;10.85;3.35;;;;;;;9.27;100.00;100807.25;5012837;28;20117;-52
2022/11/25 03:24:05;;;;;;;10.50;3.60;;;;;;;9.24;100.00;100813.22;4980696;28;20038;-51
2022/11/25 03:26:33;;;;;;;12.13;3.85;;;;;;;9.24;100.00;100823.28;5003541;28;20495;-49
2022/11/25 03:29:01;;;;;;;11.13;3.40;;;;;;;9.24;100.00;100831.44;4996190;28;20115;-49
2022/11/25 03:31:28;;;;;;;13.40;3.78;;;;;;;9.23;100.00;100833.28;4996564;28;20129;-49
2022/11/25 03:33:56;;;;;;;11.18;3.40;;;;;;;9.23;100.00;100843.34;4980030;28;20041;-50
2022/11/25 03:36:24;;;;;;;9.73;3.10;;;;;;;9.21;100.00;100857.19;4978162;28;20042;-48
2022/11/25 03:38:51;;;;;;;11.25;3.33;;;;;;;9.21;100.00;100861.81;5006212;28;20564;-48
2022/11/25 03:41:19;;;;;;;13.20;3.50;;;;;;;9.20;100.00;100866.44;4989264;28;20045;-49
2022/11/25 03:43:47;;;;;;;9.38;3.13;;;;;;;9.20;100.00;100857.47;4992942;28;20061;-48
2022/11/25 03:46:15;;;;;;;11.27;3.30;;;;;;;9.21;100.00;100856.38;5007506;28;20169;-49
2022/11/25 03:48:43;;;;;;;12.18;3.40;;;;;;;9.21;100.00;100865.34;4996242;28;20038;-54
2022/11/25 03:51:11;;;;;;;9.40;3.30;;;;;;;9.21;100.00;100884.38;4996129;28;20096;-49
2022/11/25 03:53:39;;;;;;;13.13;3.67;;;;;;;9.21;100.00;100887.09;4990193;28;20129;-51
2022/11/25 03:56:08;;;;;;;12.38;3.65;;;;;;;9.20;100.00;100896.34;5004134;28;20054;-52
2022/11/25 03:58:36;;;;;;;10.13;3.25;;;;;;;9.20;100.00;100888.19;5008449;28;20042;-54
2022/11/25 04:01:05;;;;;;;10.82;2.63;;;;;;;9.20;100.00;100893.63;4987144;28;20065;-49
2022/11/25 04:03:33;;;;;;;9.48;2.88;;;;;;;9.20;100.00;100893.63;4992828;28;20033;-48
2022/11/25 04:06:01;;;;;;;9.05;3.35;;;;;;;9.20;100.00;100888.19;5002203;28;20042;-54
2022/11/25 04:08:30;;;;;;;10.90;2.92;;;;;;;9.20;100.00;100888.19;4995832;28;20053;-49
2022/11/25 04:10:58;;;;;;;12.50;3.58;;;;;;;9.20;100.00;100892.81;4996171;28;20104;-49
2022/11/25 04:13:29;;;;;;;10.48;3.33;;;;;;;9.19;100.00;100897.44;4995347;28;20444;-51
2022/11/25 04:15:57;;;;;;;13.45;3.65;;;;;;;9.17;100.00;100889.53;4977703;28;20093;-54
2022/11/25 04:18:25;;;;;;;11.02;3.17;;;;;;;9.15;100.00;100893.59;4989947;28;20475;-50
2022/11/25 04:20:56;;;;;;;10.52;3.00;;;;;;;9.13;100.00;100901.16;4969855;28;20053;-52
2022/11/25 04:23:24;;;;;;;10.70;3.47;;;;;;;9.12;100.00;100910.41;4993485;28;20041;-55
2022/11/25 04:26:00;;;;;;;10.73;3.33;;;;;;;9.10;100.00;100921.53;4973384;28;20406;-50
2022/11/25 04:28:33;;;;;;;11.18;3.40;;;;;;;9.11;100.00;100928.59;4995814;28;20069;-53
2022/11/25 04:31:06;;;;;;;7.40;2.53;;;;;;;9.11;100.00;100923.16;4992358;28;20043;-51
2022/11/25 04:33:35;;;;;;;10.48;3.00;;;;;;;9.12;100.00;100929.44;4962896;28;20035;-51
2022/11/25 04:36:04;;;;;;;6.57;2.67;;;;;;;9.12;100.00;100935.69;4991470;28;20457;-53
2022/11/25 04:38:32;;;;;;;8.98;2.90;;;;;;;9.12;100.00;100943.84;4992474;28;20087;-51
2022/11/25 04:41:01;;;;;;;7.07;2.67;;;;;;;9.13;100.00;100950.09;4991934;28;20050;-51
2022/11/25 04:43:32;;;;;;;8.57;2.65;;;;;;;9.14;100.00;100947.13;4967239;28;20158;-50
2022/11/25 04:46:05;;;;;;;6.88;2.47;;;;;;;9.13;100.00;100947.38;4980517;28;20046;-52
2022/11/25 04:48:43;;;;;;;11.63;2.67;;;;;;;9.12;100.00;100956.63;4993652;28;20117;-49
2022/11/25 04:51:10;;;;;;;7.78;2.63;;;;;;;9.14;100.00;100957.19;4978614;28;20035;-48
2022/11/25 04:53:39;;;;;;;9.05;2.50;;;;;;;9.15;100.00;100961.53;4959069;28;20047;-48
2022/11/25 04:56:09;;;;;;;6.25;2.50;;;;;;;9.16;100.00;100974.03;4972746;28;20083;-52
2022/11/25 05:01:28;;;;;;;8.70;2.45;;;;;;;9.17;100.00;100970.28;4991264;28;20047;-51
2022/11/25 05:04:05;;;;;;;7.15;2.50;;;;;;;9.17;100.00;100964.84;4986853;28;20401;-52
2022/11/25 05:06:35;;;;;;;6.43;2.40;;;;;;;9.16;100.00;100964.00;4990923;28;20093;-52
2022/11/25 05:09:03;;;;;;;6.97;2.47;;;;;;;9.17;100.00;100959.41;4988761;28;20105;-50
2022/11/25 05:11:34;;;;;;;6.53;2.10;;;;;;;9.15;100.00;100969.69;4995273;28;20515;-52
2022/11/25 05:14:02;;;;;;;4.63;1.70;;;;;;;9.16;100.00;100968.59;4991703;28;20058;-51
2022/11/25 05:16:30;;;;;;;5.95;2.30;;;;;;;9.15;100.00;100975.13;4983894;28;20074;-52
2022/11/25 05:18:59;;;;;;;7.60;2.50;;;;;;;9.14;100.00;100987.09;4994330;28;20045;-52
2022/11/25 05:21:27;;;;;;;7.15;2.10;;;;;;;9.13;100.00;100985.44;4979576;28;20484;-53
2022/11/25 05:23:54;;;;;;;5.90;2.10;;;;;;;9.22;100.00;100989.34;4985684;28;20038;-52
2022/11/25 05:26:25;;;;;;;7.75;2.53;;;;;;;9.24;100.00;100991.81;4992183;28;20532;-50
2022/11/25 05:28:56;;;;;;;5.32;2.20;;;;;;;9.25;100.00;100982.59;4995073;28;20088;-51
2022/11/25 05:31:24;;;;;;;5.68;2.25;;;;;;;9.23;100.00;100990.97;4995428;28;20125;-53
2022/11/25 05:33:53;;;;;;;5.13;1.77;;;;;;;9.34;100.00;100986.50;4983750;28;20043;-51
2022/11/25 05:36:22;;;;;;;5.95;1.75;;;;;;;9.35;100.00;100980.78;4995504;28;20046;-52
2022/11/25 05:38:49;;;;;;;4.80;1.88;;;;;;;9.29;100.00;100979.09;4995561;28;20038;-52
2022/11/25 05:41:25;;;;;;;6.78;2.13;;;;;;;9.37;100.00;100984.06;4965302;28;20046;-53
2022/11/25 05:43:53;;;;;;;4.60;2.05;;;;;;;9.47;100.00;100980.63;4965919;28;20038;-50
2022/11/25 05:46:21;;;;;;;7.28;2.47;;;;;;;9.38;100.00;100983.00;4987544;28;20043;-50
2022/11/25 05:48:56;;;;;;;4.75;1.95;;;;;;;9.41;100.00;100986.31;4986241;28;20062;-50
2022/11/25 05:51:27;;;;;;;6.47;2.42;;;;;;;9.39;100.00;100984.63;4995390;28;20047;-51
2022/11/25 05:53:55;;;;;;;4.97;2.28;;;;;;;9.31;100.00;100987.00;4976311;28;20499;-52
2022/11/25 05:56:28;;;;;;;5.90;2.35;;;;;;;9.30;100.00;101002.47;4979667;28;20161;-50
2022/11/25 05:59:10;;;;;;;6.13;2.22;;;;;;;9.34;100.00;100997.38;4982152;28;20120;-53
2022/11/25 06:01:56;;;;;;;;;;;;;;;9.38;100.00;101004.75;4984660;28;20097;-53
2022/11/25 06:04:24;;;;;;;6.38;1.85;;;;;;;9.41;100.00;101005.34;4991421;28;19926;-52
2022/11/25 06:06:52;;;;;;;4.85;1.70;;;;;;;9.37;100.00;101008.53;4965363;28;20038;-53
2022/11/25 06:09:19;;;;;;;5.90;2.05;;;;;;;9.36;100.00;101019.69;4996018;28;20409;-53
2022/11/25 06:11:47;;;;;;;7.05;2.30;;;;;;;9.34;100.00;101019.94;4987819;28;20479;-50
2022/11/25 06:14:16;;;;;;;7.15;2.50;;;;;;;9.39;100.00;101017.28;4975042;28;20122;-52
2022/11/25 06:16:46;;;;;;;8.32;2.50;;;;;;;9.27;100.00;101027.47;5004230;28;20048;-55
2022/11/25 06:19:43;;;;;;;9.43;2.72;;;;;;;9.26;100.00;101023.13;4967393;28;20133;-52
2022/11/25 06:22:11;;;;;;;8.38;2.33;;;;;;;9.23;100.00;101029.03;4974647;28;20367;-51
2022/11/25 06:24:38;;;;;;;7.60;2.33;;;;;;;9.18;100.00;101027.09;4975680;28;20050;-51
2022/11/25 06:27:07;;;;;;;4.38;1.85;;;;;;;9.11;100.00;101031.88;4974729;28;20042;-52
2022/11/25 06:29:35;;;;;;;5.80;2.17;;;;;;;9.07;100.00;101022.63;4953953;28;20111;-52
2022/11/25 06:32:04;;;;;;;7.18;2.40;;;;;;;9.22;100.00;101026.59;4952910;28;20406;-51
2022/11/25 06:34:50;;;;;;;5.85;2.17;;;;;;;9.21;100.00;101031.19;4956724;28;20031;-53
2022/11/25 06:37:28;;;;;;;8.15;2.47;;;;;;;9.10;100.00;101041.13;4955541;29;20435;-50
2022/11/25 06:39:56;;;;;;;5.32;2.30;;;;;;;9.06;100.00;101050.03;4956349;29;20043;-49
2022/11/25 06:42:24;;;;;;;5.55;2.30;;;;;;;9.05;100.00;101062.00;4269962;28;9999931;-49
2022/11/25 06:44:51;;;;;;;8.82;2.25;;;;;;;9.02;100.00;101059.75;4970423;28;20097;-54
2022/11/25 06:47:19;;;;;;;8.00;2.17;;;;;;;9.00;100.00;101056.50;4956059;28;20059;-54
2022/11/25 06:49:48;;;;;;;6.75;2.42;;;;;;;9.02;100.00;101070.63;4969591;28;20117;-55
2022/11/25 06:52:15;;;;;;;8.85;2.10;;;;;;;9.05;100.00;101056.56;4973701;28;20105;-54
2022/11/25 06:54:44;;;;;;;10.15;2.85;;;;;;;9.01;100.00;101063.56;4963784;28;20054;-52
2022/11/25 06:57:14;;;;;;;7.55;2.47;;;;;;;9.07;100.00;101062.56;4973404;28;20042;-50
2022/11/25 06:59:42;;;;;;;4.93;2.47;;;;;;;9.06;100.00;101066.34;4971536;28;20043;-54
2022/11/25 07:02:13;;;;;;;10.95;2.60;;;;;;;9.03;100.00;101075.00;4966720;28;20047;-52
2022/11/25 07:04:41;;;;;;;10.15;2.70;;;;;;;9.02;100.00;101081.50;4968240;28;20066;-49
2022/11/25 07:07:09;;;;;;;8.88;3.17;;;;;;;8.98;100.00;101078.47;4965973;28;20061;-49
2022/11/25 07:09:36;;;;;;;7.05;2.80;;;;;;;8.93;100.00;101081.94;4971450;28;20053;-52
2022/11/25 07:12:05;;;;;;;7.22;2.47;;;;;;;8.95;100.00;101087.97;4960605;28;20054;-54
2022/11/25 07:14:32;;;;;;;7.65;2.40;;;;;;;8.94;100.00;101097.16;4965867;28;20039;-52
2022/11/25 07:17:01;;;;;;;8.68;2.80;;;;;;;8.95;100.00;101096.13;4966512;28;20043;-54
2022/11/25 07:19:34;;;;;;;8.57;2.63;;;;;;;8.94;100.00;101094.44;4962924;28;20489;-51
2022/11/25 07:22:02;;;;;;;10.05;2.80;;;;;;;8.90;100.00;101101.47;4953747;28;20106;-51
2022/11/25 07:24:30;;;;;;;8.23;3.00;;;;;;;8.89;100.00;101105.25;4972182;28;20054;-51
2022/11/25 07:26:58;;;;;;;5.45;2.38;;;;;;;8.93;100.00;101109.13;4974128;28;20051;-51
2022/11/25 07:29:26;;;;;;;7.88;3.08;;;;;;;8.89;100.00;101121.56;5001274;28;20055;-50
2022/11/25 07:32:14;;;;;;;7.13;3.00;;;;;;;8.90;100.00;101111.53;5006690;28;20049;-50
2022/11/25 07:34:42;;;;;;;10.23;3.40;;;;;;;8.84;100.00;101124.22;5011194;28;20038;-50
2022/11/25 07:37:09;;;;;;;9.00;3.00;;;;;;;8.82;100.00;101129.06;5002629;28;20129;-50
2022/11/25 07:39:37;;;;;;;5.18;2.45;;;;;;;8.90;100.00;101134.09;4995458;28;20389;-50
2022/11/25 07:42:05;;;;;;;10.30;3.80;;;;;;;8.85;100.00;101144.03;4987667;28;20055;-50
2022/11/25 07:44:33;;;;;;;8.52;3.35;;;;;;;8.81;100.00;101151.06;5009423;28;20046;-51
2022/11/25 07:47:16;;;;;;;11.30;3.60;;;;;;;8.81;100.00;101146.44;5009592;28;20034;-52
2022/11/25 07:49:44;;;;;;;8.35;3.40;;;;;;;8.79;100.00;101156.72;5010525;28;20424;-50
2022/11/25 07:52:11;;;;;;;9.50;2.97;;;;;;;8.77;100.00;101156.16;5010888;28;20132;-50
2022/11/25 07:54:39;;;;;;;11.32;3.83;;;;;;;8.80;100.00;101162.97;5003479;28;20555;-52
2022/11/25 07:57:06;;;;;;;10.25;3.58;;;;;;;8.80;100.00;101165.69;4981378;28;20050;-50
2022/11/25 07:59:35;;;;;;;16.55;4.68;;;;;;;8.84;100.00;101167.69;5010377;28;20065;-50
2022/11/25 08:02:03;;;;;;;11.60;3.85;;;;;;;8.95;100.00;101165.97;5010074;28;20046;-50
2022/11/25 08:04:30;;;;;;;15.80;4.13;;;;;;;8.95;100.00;101176.81;5010341;28;20062;-51
2022/11/25 08:06:58;;;;;;;10.50;3.90;;;;;;;8.97;100.00;101182.81;4989001;28;20053;-51
2022/11/25 08:09:25;;;;;;;10.00;3.80;;;;;;;8.99;100.00;101175.22;5000436;28;20042;-50
2022/11/25 08:11:53;;;;;;;9.05;3.20;;;;;;;8.99;100.00;101190.72;5009859;28;20489;-50
2022/11/25 08:14:21;;;;;;;9.60;3.53;;;;;;;8.92;100.00;101190.88;4997017;28;20489;-47
2022/11/25 08:16:48;;;;;;;9.27;3.40;;;;;;;8.89;100.00;101192.22;5004867;28;20052;-48
2022/11/25 08:19:17;;;;;;;10.57;3.35;;;;;;;8.94;100.00;101188.75;4996427;28;20045;-51
2022/11/25 08:21:46;;;;;;;8.77;3.50;;;;;;;8.96;100.00;101192.88;4990358;28;20050;-47
2022/11/25 08:24:16;;;;;;;16.23;4.20;;;;;;;9.04;100.00;101196.25;4959998;28;20046;-52
2022/11/25 08:26:44;;;;;;;11.15;3.55;;;;;;;9.02;100.00;101201.09;5002699;28;20049;-50
2022/11/25 08:29:16;;;;;;;9.88;3.58;;;;;;;8.99;100.00;101207.84;5003976;28;20062;-54
2022/11/25 08:31:44;;;;;;;8.48;3.30;;;;;;;9.00;100.00;101203.25;4991235;28;20060;-52
2022/11/25 08:34:23;;;;;;;10.65;3.50;;;;;;;8.99;100.00;101217.91;4971496;28;20402;-53
2022/11/25 08:36:56;;;;;;;13.48;3.60;;;;;;;9.02;100.00;101206.53;4994463;28;20061;-47
2022/11/25 08:39:24;;;;;;;12.25;3.22;;;;;;;9.01;100.00;101213.06;5009725;28;20042;-49
2022/11/25 08:42:11;;;;;;;9.98;3.60;;;;;;;9.05;100.00;101212.31;4998152;28;20100;-50
2022/11/25 08:44:39;;;;;;;13.02;3.78;;;;;;;9.20;100.00;101208.19;5006407;28;20125;-51
2022/11/25 08:47:08;;;;;;;8.98;3.60;;;;;;;9.25;100.00;101211.78;5014239;28;20406;-51
2022/11/25 08:49:36;;;;;;;12.90;3.60;;;;;;;9.23;100.00;101216.66;5013668;28;20496;-50
2022/11/25 08:52:08;;;;;;;9.30;3.58;;;;;;;9.00;100.00;101216.84;5004760;28;20054;-48
2022/11/25 08:54:36;;;;;;;13.75;3.53;;;;;;;8.90;100.00;101231.09;4990480;28;20045;-50
2022/11/25 08:57:04;;;;;;;9.98;3.03;;;;;;;8.89;100.00;101229.44;4987983;28;20050;-51
2022/11/25 08:59:31;;;;;;;10.32;4.03;;;;;;;8.88;100.00;101227.81;4989838;28;20049;-50
2022/11/25 09:01:59;;;;;;;11.00;3.50;;;;;;;8.85;100.00;101234.56;4973840;28;20394;-48
2022/11/25 09:04:27;;;;;;;9.48;3.25;;;;;;;8.85;100.00;101240.00;5007960;28;20152;-47
2022/11/25 09:06:55;;;;;;;12.60;3.67;;;;;;;8.84;100.00;101243.75;4999078;28;20519;-48
2022/11/25 09:09:22;;;;;;;11.00;3.38;;;;;;;8.82;100.00;101248.59;4993245;28;20052;-47
2022/11/25 09:11:50;;;;;;;9.45;3.53;;;;;;;8.84;100.00;101249.19;5013849;28;20077;-51
2022/11/25 09:14:17;;;;;;;12.05;4.45;;;;;;;8.89;100.00;101256.63;5005762;28;20504;-51
2022/11/25 09:16:45;;;;;;;14.38;4.75;;;;;;;9.10;100.00;101252.34;4998382;28;20042;-47
2022/11/25 09:19:13;;;;;;;12.57;3.85;;;;;;;9.04;100.00;101254.13;4983780;28;20399;-50
2022/11/25 09:21:42;;;;;;;12.43;4.05;;;;;;;9.10;100.00;101257.78;5007895;28;20049;-48
2022/11/25 09:24:10;;;;;;;12.82;3.63;;;;;;;9.24;100.00;101253.66;4985836;28;20050;-52
2022/11/25 09:26:39;;;;;;;9.57;3.92;;;;;;;9.27;100.00;101263.22;4983437;28;20128;-49
2022/11/25 09:29:08;;;;;;;12.43;3.42;;;;;;;9.17;100.00;101259.25;5000767;28;20108;-50
2022/11/25 09:31:35;;;;;;;9.43;3.50;;;;;;;9.18;100.00;101276.38;4960766;28;20047;-51
2022/11/25 09:34:03;;;;;;;13.70;3.67;;;;;;;9.21;100.00;101281.31;4994868;28;20052;-50
2022/11/25 09:36:31;;;;;;;10.77;3.78;;;;;;;9.27;100.00;101290.41;4976816;28;20394;-50
2022/11/25 09:38:59;;;;;;;10.45;3.78;;;;;;;9.28;100.00;101297.47;4978964;28;20038;-50
2022/11/25 09:47:31;;;;;;;12.60;3.25;;;;;;;9.35;100.00;101309.00;4982827;28;20092;-49
2022/11/25 09:50:07;;;;;;;11.70;3.67;;;;;;;9.29;100.00;101316.28;4979388;28;20432;-53
2022/11/25 09:52:34;;;;;;;12.45;3.92;;;;;;;9.22;100.00;101315.59;4998092;28;20425;-54
2022/11/25 09:55:04;;;;;;;9.55;3.40;;;;;;;9.23;100.00;101322.69;4996552;28;20042;-52
2022/11/25 09:57:47;;;;;;;8.30;3.35;;;;;;;9.35;100.00;101320.69;5004156;28;20041;-50
2022/11/25 10:00:20;;;;;;;10.27;3.70;;;;;;;9.55;100.00;101322.13;4992825;28;20046;-48
2022/11/25 10:03:32;;;;;;;8.30;3.30;;;;;;;9.53;100.00;101322.34;4994710;28;20049;-49
2022/11/25 10:06:15;;;;;;;11.07;3.53;;;;;;;9.42;100.00;101327.88;4890167;29;20068;-54
2022/11/25 10:08:48;;;;;;;10.95;4.35;;;;;;;9.33;100.00;101322.88;4884239;29;20049;-52
2022/11/25 10:11:25;;;;;;;12.63;4.45;;;;;;;9.45;100.00;101332.81;4963507;28;20046;-52
2022/11/25 10:14:18;;;;;;;12.57;3.70;;;;;;;9.67;100.00;101325.56;4994814;28;20405;-55
2022/11/25 10:17:05;;;;;;;9.80;3.50;;;;;;;9.70;100.00;101335.94;4985303;28;20038;-50
2022/11/25 10:19:58;;;;;;;11.57;3.30;;;;;;;9.55;100.00;101338.44;4994576;28;20062;-50
2022/11/25 10:22:30;;;;;;;11.82;3.90;;;;;;;9.49;100.00;101347.59;4993881;28;20046;-53
2022/11/25 10:25:26;;;;;;;9.10;3.35;;;;;;;9.61;100.00;101351.03;4994994;28;20046;-54
2022/11/25 10:27:53;;;;;;;11.25;4.10;;;;;;;9.58;100.00;101346.09;4971670;28;20057;-53
2022/11/25 10:30:24;;;;;;;12.07;3.78;;;;;;;9.50;100.00;101355.50;4996352;28;20397;-55
2022/11/25 10:33:13;;;;;;;13.85;4.38;;;;;;;9.44;100.00;101355.66;4992299;28;20130;-54
2022/11/25 10:35:51;;;;;;;12.32;3.63;;;;;;;9.41;100.00;101362.41;4976048;28;20047;-48
2022/11/25 10:38:48;;;;;;;12.70;4.18;;;;;;;9.42;100.00;101368.69;4977900;28;20089;-50
2022/11/25 10:41:18;;;;;;;11.63;3.60;;;;;;;9.42;100.00;101374.94;4978079;28;20052;-51
2022/11/25 10:43:47;;;;;;;11.05;3.80;;;;;;;9.46;100.00;101375.28;4976738;28;20115;-50
2022/11/25 10:46:42;;;;;;;14.73;4.35;;;;;;;9.52;100.00;101379.72;4977068;28;20129;-53
2022/11/25 10:49:57;;;;;;;10.07;4.00;;;;;;;9.67;100.00;101379.13;5018763;28;20048;-53
2022/11/25 10:52:28;;;;;;;12.18;4.43;;;;;;;9.67;100.00;101379.13;4978502;28;20042;-51
2022/11/25 10:55:18;;;;;;;11.60;3.65;;;;;;;9.75;100.00;101378.75;4979711;28;20061;-50
2022/11/25 10:57:45;;;;;;;10.55;3.38;;;;;;;9.85;100.00;101386.22;4989177;28;20452;-50
2022/11/25 11:00:34;;;;;;;14.23;4.32;;;;;;;9.77;100.00;101393.75;4994288;28;20036;-50
2022/11/25 11:03:20;;;;;;;12.25;3.90;;;;;;;9.82;100.00;101391.09;5004274;28;20042;-49
2022/11/25 11:05:50;;;;;;;9.93;3.40;;;;;;;9.89;100.00;101390.13;4997301;28;20096;-49
2022/11/25 11:08:22;;;;;;;12.95;3.85;;;;;;;9.85;100.00;101394.41;4993475;28;20042;-50
2022/11/25 11:11:08;;;;;;;11.77;3.50;;;;;;;9.89;100.00;101390.94;4986776;28;20065;-55
2022/11/25 11:13:36;;;;;;;;;;;;;;;9.86;100.00;101396.88;5002114;28;20034;-52
2022/11/25 11:16:13;;;;;;;12.07;3.97;;;;;;;9.82;100.00;101398.44;5015445;28;19921;-53
2022/11/25 11:18:41;;;;;;;9.00;3.22;;;;;;;9.82;100.00;101412.06;4977250;28;20035;-52
2022/11/25 11:21:22;;;;;;;11.73;3.95;;;;;;;9.83;100.00;101419.13;4975524;28;20038;-54
2022/11/25 11:23:52;;;;;;;11.98;3.63;;;;;;;9.86;100.00;101415.94;5002063;28;20410;-49
2022/11/25 11:26:29;;;;;;;12.73;3.80;;;;;;;9.86;100.00;101417.81;4980445;28;20042;-51
2022/11/25 11:28:57;;;;;;;;;;;;;;;9.87;100.00;101419.47;4994754;28;20058;-51
2022/11/25 11:31:34;;;;;;;13.95;3.55;;;;;;;9.93;100.00;101421.19;4983962;28;19921;-49
2022/11/25 11:34:20;;;;;;;16.50;4.65;;;;;;;9.90;100.00;101425.22;4966084;28;20501;-54
2022/11/25 11:37:17;;;;;;;11.00;3.65;;;;;;;9.90;100.00;101421.69;5011781;28;20053;-51
2022/11/25 11:40:22;;;;;;;12.98;4.40;;;;;;;9.90;100.00;101429.84;4978678;28;20052;-50
2022/11/25 11:42:52;;;;;;;12.87;3.93;;;;;;;9.89;100.00;101444.56;5014422;28;20046;-48
2022/11/25 11:45:23;;;;;;;14.00;3.50;;;;;;;9.89;100.00;101445.38;4984914;28;20355;-49
2022/11/25 11:48:25;;;;;;;12.65;3.80;;;;;;;9.90;100.00;101446.19;5009007;28;20096;-49
2022/11/25 11:50:59;;;;;;;15.50;4.07;;;;;;;9.92;100.00;101449.50;4994318;28;20560;-52
2022/11/25 11:53:34;;;;;;;12.82;3.63;;;;;;;9.94;100.00;101455.50;5007539;28;20046;-50
2022/11/25 11:56:07;;;;;;;12.40;4.18;;;;;;;9.96;100.00;101459.63;4983415;28;20109;-51